Map

Track Data

SID SEASON NUMBER BASIN SUBBASIN NAME ISO_TIME NATURE LAT LON WMO_WIND WMO_PRES WMO_AGENCY TRACK_TYPE DIST2LAND LANDFALL IFLAG USA_AGENCY USA_ATCF_ID USA_LAT USA_LON USA_RECORD USA_STATUS USA_WIND USA_PRES USA_SSHS USA_R34_NE USA_R34_SE USA_R34_SW USA_R34_NW USA_R50_NE USA_R50_SE USA_R50_SW USA_R50_NW USA_R64_NE USA_R64_SE USA_R64_SW USA_R64_NW USA_POCI USA_ROCI USA_RMW USA_EYE TOKYO_LAT TOKYO_LON TOKYO_GRADE TOKYO_WIND TOKYO_PRES TOKYO_R50_DIR TOKYO_R50_LONG TOKYO_R50_SHORT TOKYO_R30_DIR TOKYO_R30_LONG TOKYO_R30_SHORT TOKYO_LAND CMA_LAT CMA_LON CMA_CAT CMA_WIND CMA_PRES HKO_LAT HKO_LON HKO_CAT HKO_WIND HKO_PRES NEWDELHI_LAT NEWDELHI_LON NEWDELHI_GRADE NEWDELHI_WIND NEWDELHI_PRES NEWDELHI_CI NEWDELHI_DP NEWDELHI_POCI REUNION_LAT REUNION_LON REUNION_TYPE REUNION_WIND REUNION_PRES REUNION_TNUM REUNION_CI REUNION_RMW REUNION_R34_NE REUNION_R34_SE REUNION_R34_SW REUNION_R34_NW REUNION_R50_NE REUNION_R50_SE REUNION_R50_SW REUNION_R50_NW REUNION_R64_NE REUNION_R64_SE REUNION_R64_SW REUNION_R64_NW BOM_LAT BOM_LON BOM_TYPE BOM_WIND BOM_PRES BOM_TNUM BOM_CI BOM_RMW BOM_R34_NE BOM_R34_SE BOM_R34_SW BOM_R34_NW BOM_R50_NE BOM_R50_SE BOM_R50_SW BOM_R50_NW BOM_R64_NE BOM_R64_SE BOM_R64_SW BOM_R64_NW BOM_ROCI BOM_POCI BOM_EYE BOM_POS_METHOD BOM_PRES_METHOD NADI_LAT NADI_LON NADI_CAT NADI_WIND NADI_PRES WELLINGTON_LAT WELLINGTON_LON WELLINGTON_WIND WELLINGTON_PRES DS824_LAT DS824_LON DS824_STAGE DS824_WIND DS824_PRES TD9636_LAT TD9636_LON TD9636_STAGE TD9636_WIND TD9636_PRES TD9635_LAT TD9635_LON TD9635_WIND TD9635_PRES TD9635_ROCI NEUMANN_LAT NEUMANN_LON NEUMANN_CLASS NEUMANN_WIND NEUMANN_PRES MLC_LAT MLC_LON MLC_CLASS MLC_WIND MLC_PRES USA_GUST BOM_GUST BOM_GUST_PER REUNION_GUST REUNION_GUST_PER USA_SEAHGT USA_SEARAD_NE USA_SEARAD_SE USA_SEARAD_SW USA_SEARAD_NW STORM_SPEED STORM_DIR
1852273N11295 1852 13 NA CS NOT_NAMED 1852-09-28 12:00:00 TS 11.0000 -65.5000 main 70 60 _____________O -1 11.0000 -65.5000 TS 35 10 294
1852273N11295 1852 13 NA CS NOT_NAMED 1852-09-28 15:00:00 TS 11.1976 -65.9499 main 68 67 _____________P -1 11.1976 -65.9499 TS 35 10 294
1852273N11295 1852 13 NA CS NOT_NAMED 1852-09-28 18:00:00 TS 11.4000 -66.4000 main 89 89 _____________O -1 11.4000 -66.4000 TS 35 10 295
1852273N11295 1852 13 NA CS NOT_NAMED 1852-09-28 21:00:00 TS 11.6074 -66.8500 main 111 111 _____________P -1 11.6074 -66.8500 TS 35 10 294
1852273N11295 1852 13 NA CS NOT_NAMED 1852-09-29 00:00:00 TS 11.8000 -67.3000 main 137 109 _____________O -1 11.8000 -67.3000 TS 35 9 291
1852273N11295 1852 13 NA CS NOT_NAMED 1852-09-29 03:00:00 TS 11.9499 -67.7426 main 109 99 _____________P -1 11.9499 -67.7426 TS 35 9 289
1852273N11295 1852 13 NA CS NOT_NAMED 1852-09-29 06:00:00 TS 12.1000 -68.2000 main 99 92 _____________O -1 12.1000 -68.2000 TS 35 10 291
1852273N11295 1852 13 NA CS NOT_NAMED 1852-09-29 09:00:00 TS 12.3000 -68.7000 main 101 85 _____________P -1 12.3000 -68.7000 TS 37 11 292
1852273N11295 1852 13 NA CS NOT_NAMED 1852-09-29 12:00:00 TS 12.5000 -69.2000 main 85 64 _____________O -1 12.5000 -69.2000 TS 40 10 291
1852273N11295 1852 13 NA CS NOT_NAMED 1852-09-29 15:00:00 TS 12.6498 -69.6502 main 60 60 _____________P -1 12.6498 -69.6502 TS 40 9 289
1852273N11295 1852 13 NA CS NOT_NAMED 1852-09-29 18:00:00 TS 12.8000 -70.1000 main 78 78 _____________O -1 12.8000 -70.1000 TS 40 10 291
1852273N11295 1852 13 NA CS NOT_NAMED 1852-09-29 21:00:00 TS 13.0000 -70.6000 main 109 95 _____________P -1 13.0000 -70.6000 TS 40 11 292
1852273N11295 1852 13 NA CS NOT_NAMED 1852-09-30 00:00:00 TS 13.2000 -71.1000 main 99 95 _____________O -1 13.2000 -71.1000 TS 40 10 292
1852273N11295 1852 13 NA CS NOT_NAMED 1852-09-30 03:00:00 TS 13.3648 -71.5501 main 111 111 _____________P -1 13.3648 -71.5501 TS 40 9 289
1852273N11295 1852 13 NA CS NOT_NAMED 1852-09-30 06:00:00 TS 13.5000 -72.0000 main 127 127 _____________O -1 13.5000 -72.0000 TS 40 10 285
1852273N11295 1852 13 NA CS NOT_NAMED 1852-09-30 09:00:00 TS 13.6150 -72.5000 main 155 155 _____________P -1 13.6150 -72.5000 TS 42 10 282
1852273N11295 1852 13 NA CS NOT_NAMED 1852-09-30 12:00:00 TS 13.7000 -73.0000 main 189 189 _____________O -1 13.7000 -73.0000 TS 45 9 279
1852273N11295 1852 13 NA CS NOT_NAMED 1852-09-30 15:00:00 TS 13.7573 -73.4501 main 227 227 _____________P -1 13.7573 -73.4501 TS 45 9 277
1852273N11295 1852 13 NA CS NOT_NAMED 1852-09-30 18:00:00 TS 13.8000 -73.9000 main 257 257 _____________O -1 13.8000 -73.9000 TS 45 9 276
1852273N11295 1852 13 NA CS NOT_NAMED 1852-09-30 21:00:00 TS 13.8500 -74.4000 main 291 291 _____________P -1 13.8500 -74.4000 TS 45 10 276
1852273N11295 1852 13 NA CS NOT_NAMED 1852-10-01 00:00:00 TS 13.9000 -74.9000 main 311 311 _____________O -1 13.9000 -74.9000 TS 45 9 277
1852273N11295 1852 13 NA CS NOT_NAMED 1852-10-01 03:00:00 TS 13.9573 -75.3500 main 335 335 _____________P -1 13.9573 -75.3500 TS 45 9 277
1852273N11295 1852 13 NA CS NOT_NAMED 1852-10-01 06:00:00 TS 14.0000 -75.8000 main 349 349 _____________O -1 14.0000 -75.8000 TS 45 9 273
1852273N11295 1852 13 NA CS NOT_NAMED 1852-10-01 09:00:00 TS 14.0075 -76.3000 main 368 368 _____________P -1 14.0075 -76.3000 TS 45 10 270
1852273N11295 1852 13 NA CS NOT_NAMED 1852-10-01 12:00:00 TS 14.0000 -76.8000 main 393 393 _____________O -1 14.0000 -76.8000 TS 45 9 270
1852273N11295 1852 13 NA CS NOT_NAMED 1852-10-01 15:00:00 TS 13.9999 -77.2575 main 414 414 _____________P -1 13.9999 -77.2575 TS 45 9 270
1852273N11295 1852 13 NA CS NOT_NAMED 1852-10-01 18:00:00 TS 14.0000 -77.7000 main 417 417 _____________O -1 14.0000 -77.7000 TS 45 9 270
1852273N11295 1852 13 NA CS NOT_NAMED 1852-10-01 21:00:00 TS 13.9999 -78.1425 main 425 425 _____________P -1 13.9999 -78.1425 TS 45 9 270
1852273N11295 1852 13 NA CS NOT_NAMED 1852-10-02 00:00:00 TS 14.0000 -78.6000 main 440 440 _____________O -1 14.0000 -78.6000 TS 45 9 270
1852273N11295 1852 13 NA CS NOT_NAMED 1852-10-02 03:00:00 TS 13.9999 -79.0925 main 443 389 _____________P -1 13.9999 -79.0925 TS 45 10 270
1852273N11295 1852 13 NA CS NOT_NAMED 1852-10-02 06:00:00 TS 14.0000 -79.6000 main 389 336 _____________O -1 14.0000 -79.6000 TS 45 10 270
1852273N11295 1852 13 NA CS NOT_NAMED 1852-10-02 09:00:00 TS 13.9999 -80.1075 main 336 282 _____________P -1 13.9999 -80.1075 TS 45 10 270
1852273N11295 1852 13 NA CS NOT_NAMED 1852-10-02 12:00:00 TS 14.0000 -80.6000 main 282 239 _____________O -1 14.0000 -80.6000 TS 45 9 270
1852273N11295 1852 13 NA CS NOT_NAMED 1852-10-02 15:00:00 TS 13.9999 -81.0575 main 229 186 _____________P -1 13.9999 -81.0575 TS 45 9 270
1852273N11295 1852 13 NA CS NOT_NAMED 1852-10-02 18:00:00 TS 14.0000 -81.5000 main 186 144 _____________O -1 14.0000 -81.5000 TS 45 9 270
1852273N11295 1852 13 NA CS NOT_NAMED 1852-10-02 21:00:00 TS 13.9999 -81.9425 main 144 92 _____________P -1 13.9999 -81.9425 TS 42 9 270
1852273N11295 1852 13 NA CS NOT_NAMED 1852-10-03 00:00:00 TS 14.0000 -82.4000 main 92 46 _____________O -1 14.0000 -82.4000 TS 40 9 270
1852273N11295 1852 13 NA CS NOT_NAMED 1852-10-03 03:00:00 TS 13.9999 -82.8850 main 46 0 _____________P -1 13.9999 -82.8850 TS 37 10 270
1852273N11295 1852 13 NA CS NOT_NAMED 1852-10-03 06:00:00 TS 14.0000 -83.4000 main 0 0 _____________O -1 14.0000 -83.4000 TS 35 10 270
1852273N11295 1852 13 NA NA NOT_NAMED 1852-10-03 09:00:00 TS 14.0003 -83.9425 main 0 0 _____________P -1 14.0003 -83.9425 TS 32 11 270
1852273N11295 1852 13 NA NA NOT_NAMED 1852-10-03 12:00:00 TS 14.0000 -84.5000 main 0 _____________O -1 14.0000 -84.5000 TD 30 11 270

About IBTrACS Database

This database is a web-friendly format of International Best Track Archive for Climate Stewardship (IBTrACS), a global best track data archive curated by NOAA dating back to 1842.

Updated: 2021-10-08